sensor_id;sensor_type;location;lat;lon;timestamp;P1;durP1;ratioP1;P2;durP2;ratioP2
68633;SDS011;55625;47.072;22.192;2023-02-04T00:01:48;7.30;;;5.67;;
68633;SDS011;55625;47.072;22.192;2023-02-04T00:04:14;15.10;;;6.60;;
68633;SDS011;55625;47.072;22.192;2023-02-04T00:06:40;10.77;;;7.25;;
68633;SDS011;55625;47.072;22.192;2023-02-04T00:09:06;10.23;;;5.40;;
68633;SDS011;55625;47.072;22.192;2023-02-04T00:11:32;7.72;;;4.05;;
68633;SDS011;55625;47.072;22.192;2023-02-04T00:13:58;8.30;;;4.07;;
68633;SDS011;55625;47.072;22.192;2023-02-04T00:16:24;8.43;;;4.10;;
68633;SDS011;55625;47.072;22.192;2023-02-04T00:18:50;7.95;;;3.55;;
68633;SDS011;55625;47.072;22.192;2023-02-04T00:21:16;2.00;;;1.30;;
68633;SDS011;55625;47.072;22.192;2023-02-04T00:23:42;4.25;;;2.00;;
68633;SDS011;55625;47.072;22.192;2023-02-04T00:26:08;1.83;;;1.05;;
68633;SDS011;55625;47.072;22.192;2023-02-04T00:28:34;1.93;;;0.80;;
68633;SDS011;55625;47.072;22.192;2023-02-04T00:30:59;2.65;;;1.05;;
68633;SDS011;55625;47.072;22.192;2023-02-04T00:33:25;3.88;;;1.00;;
68633;SDS011;55625;47.072;22.192;2023-02-04T00:35:51;3.00;;;1.03;;
68633;SDS011;55625;47.072;22.192;2023-02-04T00:38:17;1.40;;;0.55;;
68633;SDS011;55625;47.072;22.192;2023-02-04T00:40:43;2.30;;;0.80;;
68633;SDS011;55625;47.072;22.192;2023-02-04T00:43:09;4.73;;;1.63;;
68633;SDS011;55625;47.072;22.192;2023-02-04T00:45:34;4.75;;;2.30;;
68633;SDS011;55625;47.072;22.192;2023-02-04T00:48:00;4.57;;;3.43;;
68633;SDS011;55625;47.072;22.192;2023-02-04T00:50:26;7.10;;;2.97;;
68633;SDS011;55625;47.072;22.192;2023-02-04T00:52:52;8.20;;;3.95;;
68633;SDS011;55625;47.072;22.192;2023-02-04T00:55:18;4.23;;;2.20;;
68633;SDS011;55625;47.072;22.192;2023-02-04T00:57:44;5.30;;;2.72;;
68633;SDS011;55625;47.072;22.192;2023-02-04T01:00:12;16.05;;;3.83;;
68633;SDS011;55625;47.072;22.192;2023-02-04T01:02:39;10.82;;;4.70;;
68633;SDS011;55625;47.072;22.192;2023-02-04T01:05:06;11.67;;;5.27;;
68633;SDS011;55625;47.072;22.192;2023-02-04T01:07:32;19.13;;;10.23;;
68633;SDS011;55625;47.072;22.192;2023-02-04T01:09:58;23.02;;;11.63;;
68633;SDS011;55625;47.072;22.192;2023-02-04T01:12:24;17.45;;;7.25;;
68633;SDS011;55625;47.072;22.192;2023-02-04T01:14:51;8.93;;;4.18;;
68633;SDS011;55625;47.072;22.192;2023-02-04T01:17:18;4.37;;;2.80;;
68633;SDS011;55625;47.072;22.192;2023-02-04T01:19:45;3.92;;;2.15;;
68633;SDS011;55625;47.072;22.192;2023-02-04T01:22:12;9.98;;;6.03;;
68633;SDS011;55625;47.072;22.192;2023-02-04T01:24:38;5.40;;;4.65;;
68633;SDS011;55625;47.072;22.192;2023-02-04T01:27:04;5.97;;;4.40;;
68633;SDS011;55625;47.072;22.192;2023-02-04T01:29:30;6.83;;;2.37;;
68633;SDS011;55625;47.072;22.192;2023-02-04T01:31:56;4.40;;;2.33;;
68633;SDS011;55625;47.072;22.192;2023-02-04T01:34:22;5.32;;;3.50;;
68633;SDS011;55625;47.072;22.192;2023-02-04T01:36:50;7.18;;;4.88;;
68633;SDS011;55625;47.072;22.192;2023-02-04T01:39:16;1.63;;;1.17;;
68633;SDS011;55625;47.072;22.192;2023-02-04T01:41:42;3.55;;;2.03;;
68633;SDS011;55625;47.072;22.192;2023-02-04T01:44:08;3.47;;;1.35;;
68633;SDS011;55625;47.072;22.192;2023-02-04T01:46:34;8.43;;;4.68;;
68633;SDS011;55625;47.072;22.192;2023-02-04T01:49:02;6.47;;;4.60;;
68633;SDS011;55625;47.072;22.192;2023-02-04T01:51:30;7.43;;;4.60;;
68633;SDS011;55625;47.072;22.192;2023-02-04T01:53:57;12.05;;;6.93;;
68633;SDS011;55625;47.072;22.192;2023-02-04T01:56:24;9.60;;;5.63;;
68633;SDS011;55625;47.072;22.192;2023-02-04T01:58:54;11.48;;;6.55;;
68633;SDS011;55625;47.072;22.192;2023-02-04T02:04:09;6.90;;;4.97;;
68633;SDS011;55625;47.072;22.192;2023-02-04T02:06:43;7.68;;;5.53;;
68633;SDS011;55625;47.072;22.192;2023-02-04T02:09:14;7.85;;;5.80;;
68633;SDS011;55625;47.072;22.192;2023-02-04T02:11:40;13.50;;;6.22;;
68633;SDS011;55625;47.072;22.192;2023-02-04T02:14:06;13.93;;;4.97;;
68633;SDS011;55625;47.072;22.192;2023-02-04T02:16:32;7.50;;;4.35;;
68633;SDS011;55625;47.072;22.192;2023-02-04T02:18:58;8.27;;;4.80;;
68633;SDS011;55625;47.072;22.192;2023-02-04T02:21:31;7.80;;;3.28;;
68633;SDS011;55625;47.072;22.192;2023-02-04T02:24:28;8.45;;;5.60;;
68633;SDS011;55625;47.072;22.192;2023-02-04T02:26:57;8.93;;;5.63;;
68633;SDS011;55625;47.072;22.192;2023-02-04T02:29:27;5.35;;;4.10;;
68633;SDS011;55625;47.072;22.192;2023-02-04T02:31:53;8.20;;;5.47;;
68633;SDS011;55625;47.072;22.192;2023-02-04T02:34:22;7.80;;;5.57;;
68633;SDS011;55625;47.072;22.192;2023-02-04T02:36:50;6.13;;;4.80;;
68633;SDS011;55625;47.072;22.192;2023-02-04T02:39:17;9.50;;;5.90;;
68633;SDS011;55625;47.072;22.192;2023-02-04T02:41:43;5.57;;;4.32;;
68633;SDS011;55625;47.072;22.192;2023-02-04T02:44:10;6.55;;;4.07;;
68633;SDS011;55625;47.072;22.192;2023-02-04T02:46:37;9.25;;;4.50;;
68633;SDS011;55625;47.072;22.192;2023-02-04T02:49:04;4.60;;;2.38;;
68633;SDS011;55625;47.072;22.192;2023-02-04T02:51:31;2.30;;;1.30;;
68633;SDS011;55625;47.072;22.192;2023-02-04T02:53:57;1.50;;;0.95;;
68633;SDS011;55625;47.072;22.192;2023-02-04T02:56:23;2.20;;;1.15;;
68633;SDS011;55625;47.072;22.192;2023-02-04T02:58:48;2.08;;;0.95;;
68633;SDS011;55625;47.072;22.192;2023-02-04T03:01:14;1.43;;;1.10;;
68633;SDS011;55625;47.072;22.192;2023-02-04T03:03:44;4.13;;;1.65;;
68633;SDS011;55625;47.072;22.192;2023-02-04T03:06:19;4.47;;;2.33;;
68633;SDS011;55625;47.072;22.192;2023-02-04T03:08:50;4.10;;;1.08;;
68633;SDS011;55625;47.072;22.192;2023-02-04T03:11:22;1.63;;;0.88;;
68633;SDS011;55625;47.072;22.192;2023-02-04T03:13:50;4.50;;;2.27;;
68633;SDS011;55625;47.072;22.192;2023-02-04T03:16:16;3.17;;;1.60;;
68633;SDS011;55625;47.072;22.192;2023-02-04T03:18:43;1.55;;;1.13;;
68633;SDS011;55625;47.072;22.192;2023-02-04T03:21:09;2.72;;;1.13;;
68633;SDS011;55625;47.072;22.192;2023-02-04T03:23:35;2.83;;;1.30;;
68633;SDS011;55625;47.072;22.192;2023-02-04T03:26:02;1.53;;;0.87;;
68633;SDS011;55625;47.072;22.192;2023-02-04T03:28:29;2.10;;;0.98;;
68633;SDS011;55625;47.072;22.192;2023-02-04T03:30:55;1.40;;;0.57;;
68633;SDS011;55625;47.072;22.192;2023-02-04T03:33:22;1.42;;;0.93;;
68633;SDS011;55625;47.072;22.192;2023-02-04T03:35:56;2.90;;;1.92;;
68633;SDS011;55625;47.072;22.192;2023-02-04T03:38:23;2.60;;;1.33;;
68633;SDS011;55625;47.072;22.192;2023-02-04T03:40:48;2.88;;;0.68;;
68633;SDS011;55625;47.072;22.192;2023-02-04T03:43:14;3.13;;;1.27;;
68633;SDS011;55625;47.072;22.192;2023-02-04T03:45:41;1.80;;;1.07;;
68633;SDS011;55625;47.072;22.192;2023-02-04T03:48:07;2.55;;;1.10;;
68633;SDS011;55625;47.072;22.192;2023-02-04T03:50:32;1.30;;;0.60;;
68633;SDS011;55625;47.072;22.192;2023-02-04T03:52:58;1.98;;;0.68;;
68633;SDS011;55625;47.072;22.192;2023-02-04T03:55:24;1.50;;;0.77;;
68633;SDS011;55625;47.072;22.192;2023-02-04T03:57:50;4.22;;;1.63;;
68633;SDS011;55625;47.072;22.192;2023-02-04T04:00:17;1.40;;;0.90;;
68633;SDS011;55625;47.072;22.192;2023-02-04T04:02:43;3.00;;;0.75;;
68633;SDS011;55625;47.072;22.192;2023-02-04T04:05:10;1.87;;;0.90;;
68633;SDS011;55625;47.072;22.192;2023-02-04T04:07:36;1.48;;;0.43;;
68633;SDS011;55625;47.072;22.192;2023-02-04T04:10:02;2.33;;;0.80;;
68633;SDS011;55625;47.072;22.192;2023-02-04T04:12:28;1.58;;;1.05;;
68633;SDS011;55625;47.072;22.192;2023-02-04T04:14:54;2.60;;;1.77;;
68633;SDS011;55625;47.072;22.192;2023-02-04T04:17:20;3.80;;;3.25;;
68633;SDS011;55625;47.072;22.192;2023-02-04T04:19:45;10.75;;;4.85;;
68633;SDS011;55625;47.072;22.192;2023-02-04T04:22:13;9.73;;;4.73;;
68633;SDS011;55625;47.072;22.192;2023-02-04T04:24:39;9.48;;;6.18;;
68633;SDS011;55625;47.072;22.192;2023-02-04T04:27:06;12.30;;;6.57;;
68633;SDS011;55625;47.072;22.192;2023-02-04T04:29:32;10.00;;;4.80;;
68633;SDS011;55625;47.072;22.192;2023-02-04T04:31:58;17.77;;;7.33;;
68633;SDS011;55625;47.072;22.192;2023-02-04T04:34:24;5.00;;;3.42;;
68633;SDS011;55625;47.072;22.192;2023-02-04T04:36:50;5.47;;;2.60;;
68633;SDS011;55625;47.072;22.192;2023-02-04T04:39:16;5.60;;;3.63;;
68633;SDS011;55625;47.072;22.192;2023-02-04T04:41:41;4.50;;;3.17;;
68633;SDS011;55625;47.072;22.192;2023-02-04T04:44:07;4.45;;;2.10;;
68633;SDS011;55625;47.072;22.192;2023-02-04T04:46:33;3.43;;;2.60;;
68633;SDS011;55625;47.072;22.192;2023-02-04T04:48:59;5.78;;;3.83;;
68633;SDS011;55625;47.072;22.192;2023-02-04T04:51:24;6.13;;;3.90;;
68633;SDS011;55625;47.072;22.192;2023-02-04T04:53:50;5.78;;;3.22;;
68633;SDS011;55625;47.072;22.192;2023-02-04T04:56:16;4.65;;;2.65;;
68633;SDS011;55625;47.072;22.192;2023-02-04T04:58:43;8.83;;;3.80;;
68633;SDS011;55625;47.072;22.192;2023-02-04T05:01:09;6.72;;;4.82;;
68633;SDS011;55625;47.072;22.192;2023-02-04T05:03:35;7.05;;;4.63;;
68633;SDS011;55625;47.072;22.192;2023-02-04T05:06:00;7.13;;;3.53;;
68633;SDS011;55625;47.072;22.192;2023-02-04T05:08:26;10.30;;;5.47;;
68633;SDS011;55625;47.072;22.192;2023-02-04T05:10:52;4.10;;;2.38;;
68633;SDS011;55625;47.072;22.192;2023-02-04T05:13:18;9.50;;;3.67;;
68633;SDS011;55625;47.072;22.192;2023-02-04T05:15:44;5.80;;;3.72;;
68633;SDS011;55625;47.072;22.192;2023-02-04T05:18:09;5.15;;;2.33;;
68633;SDS011;55625;47.072;22.192;2023-02-04T05:20:35;12.10;;;3.30;;
68633;SDS011;55625;47.072;22.192;2023-02-04T05:23:01;3.67;;;3.17;;
68633;SDS011;55625;47.072;22.192;2023-02-04T05:25:27;2.50;;;1.40;;
68633;SDS011;55625;47.072;22.192;2023-02-04T05:27:53;3.47;;;1.57;;
68633;SDS011;55625;47.072;22.192;2023-02-04T05:30:19;3.13;;;1.60;;
68633;SDS011;55625;47.072;22.192;2023-02-04T05:32:45;3.40;;;2.75;;
68633;SDS011;55625;47.072;22.192;2023-02-04T05:35:11;7.88;;;4.03;;
68633;SDS011;55625;47.072;22.192;2023-02-04T05:37:37;4.40;;;1.73;;
68633;SDS011;55625;47.072;22.192;2023-02-04T05:40:03;7.80;;;3.45;;
68633;SDS011;55625;47.072;22.192;2023-02-04T05:42:30;7.03;;;3.40;;
68633;SDS011;55625;47.072;22.192;2023-02-04T05:44:56;5.87;;;4.30;;
68633;SDS011;55625;47.072;22.192;2023-02-04T05:47:21;2.35;;;1.52;;
68633;SDS011;55625;47.072;22.192;2023-02-04T05:49:47;3.97;;;2.10;;
68633;SDS011;55625;47.072;22.192;2023-02-04T05:52:13;4.80;;;4.30;;
68633;SDS011;55625;47.072;22.192;2023-02-04T05:54:39;59.25;;;24.38;;
68633;SDS011;55625;47.072;22.192;2023-02-04T05:57:05;30.52;;;15.00;;
68633;SDS011;55625;47.072;22.192;2023-02-04T05:59:31;6.57;;;4.93;;
68633;SDS011;55625;47.072;22.192;2023-02-04T06:01:56;2.90;;;1.75;;
68633;SDS011;55625;47.072;22.192;2023-02-04T06:04:22;5.05;;;2.25;;
68633;SDS011;55625;47.072;22.192;2023-02-04T06:06:48;2.13;;;1.40;;
68633;SDS011;55625;47.072;22.192;2023-02-04T06:09:14;2.25;;;1.17;;
68633;SDS011;55625;47.072;22.192;2023-02-04T06:11:40;1.88;;;0.95;;
68633;SDS011;55625;47.072;22.192;2023-02-04T06:14:05;2.33;;;1.73;;
68633;SDS011;55625;47.072;22.192;2023-02-04T06:16:31;1.45;;;0.77;;
68633;SDS011;55625;47.072;22.192;2023-02-04T06:18:57;2.85;;;0.88;;
68633;SDS011;55625;47.072;22.192;2023-02-04T06:21:23;1.40;;;0.77;;
68633;SDS011;55625;47.072;22.192;2023-02-04T06:23:49;3.73;;;1.33;;
68633;SDS011;55625;47.072;22.192;2023-02-04T06:26:15;6.25;;;1.48;;
68633;SDS011;55625;47.072;22.192;2023-02-04T06:28:41;3.17;;;1.73;;
68633;SDS011;55625;47.072;22.192;2023-02-04T06:31:07;3.83;;;3.13;;
68633;SDS011;55625;47.072;22.192;2023-02-04T06:33:33;2.95;;;1.35;;
68633;SDS011;55625;47.072;22.192;2023-02-04T06:36:01;2.47;;;1.88;;
68633;SDS011;55625;47.072;22.192;2023-02-04T06:38:28;4.53;;;1.33;;
68633;SDS011;55625;47.072;22.192;2023-02-04T06:40:54;5.07;;;3.13;;
68633;SDS011;55625;47.072;22.192;2023-02-04T06:43:20;4.05;;;3.70;;
68633;SDS011;55625;47.072;22.192;2023-02-04T06:45:49;1.95;;;1.52;;
68633;SDS011;55625;47.072;22.192;2023-02-04T06:48:16;2.95;;;1.23;;
68633;SDS011;55625;47.072;22.192;2023-02-04T06:50:42;1.90;;;1.08;;
68633;SDS011;55625;47.072;22.192;2023-02-04T06:53:08;3.33;;;1.63;;
68633;SDS011;55625;47.072;22.192;2023-02-04T06:55:35;2.28;;;1.60;;
68633;SDS011;55625;47.072;22.192;2023-02-04T06:58:00;2.90;;;1.88;;
68633;SDS011;55625;47.072;22.192;2023-02-04T07:00:26;8.52;;;4.97;;
68633;SDS011;55625;47.072;22.192;2023-02-04T07:02:54;3.73;;;2.07;;
68633;SDS011;55625;47.072;22.192;2023-02-04T07:05:21;6.40;;;4.35;;
68633;SDS011;55625;47.072;22.192;2023-02-04T07:07:47;4.32;;;2.80;;
68633;SDS011;55625;47.072;22.192;2023-02-04T07:10:13;7.03;;;2.67;;
68633;SDS011;55625;47.072;22.192;2023-02-04T07:12:40;2.20;;;1.57;;
68633;SDS011;55625;47.072;22.192;2023-02-04T07:15:07;4.72;;;2.13;;
68633;SDS011;55625;47.072;22.192;2023-02-04T07:17:33;7.32;;;1.88;;
68633;SDS011;55625;47.072;22.192;2023-02-04T07:19:59;2.88;;;1.55;;
68633;SDS011;55625;47.072;22.192;2023-02-04T07:22:25;3.17;;;2.80;;
68633;SDS011;55625;47.072;22.192;2023-02-04T07:24:51;3.05;;;1.92;;
68633;SDS011;55625;47.072;22.192;2023-02-04T07:27:16;1.38;;;0.73;;
68633;SDS011;55625;47.072;22.192;2023-02-04T07:29:42;1.97;;;1.13;;
68633;SDS011;55625;47.072;22.192;2023-02-04T07:32:08;1.85;;;1.08;;
68633;SDS011;55625;47.072;22.192;2023-02-04T07:34:34;2.80;;;1.03;;
68633;SDS011;55625;47.072;22.192;2023-02-04T07:37:00;1.40;;;0.73;;
68633;SDS011;55625;47.072;22.192;2023-02-04T07:39:25;1.55;;;0.95;;
68633;SDS011;55625;47.072;22.192;2023-02-04T07:41:51;1.70;;;1.10;;
68633;SDS011;55625;47.072;22.192;2023-02-04T07:44:17;1.58;;;1.23;;
68633;SDS011;55625;47.072;22.192;2023-02-04T07:46:43;1.77;;;0.60;;
68633;SDS011;55625;47.072;22.192;2023-02-04T07:49:09;1.43;;;0.40;;
68633;SDS011;55625;47.072;22.192;2023-02-04T07:51:35;1.02;;;0.47;;
68633;SDS011;55625;47.072;22.192;2023-02-04T07:54:00;4.63;;;1.47;;
68633;SDS011;55625;47.072;22.192;2023-02-04T07:56:26;1.20;;;0.47;;
68633;SDS011;55625;47.072;22.192;2023-02-04T07:58:52;1.73;;;1.17;;
68633;SDS011;55625;47.072;22.192;2023-02-04T08:01:18;1.93;;;0.77;;
68633;SDS011;55625;47.072;22.192;2023-02-04T08:03:44;1.33;;;0.47;;
68633;SDS011;55625;47.072;22.192;2023-02-04T08:06:10;1.65;;;1.00;;
68633;SDS011;55625;47.072;22.192;2023-02-04T08:08:36;2.63;;;1.73;;
68633;SDS011;55625;47.072;22.192;2023-02-04T08:11:01;1.60;;;1.13;;
68633;SDS011;55625;47.072;22.192;2023-02-04T08:13:27;1.85;;;1.52;;
68633;SDS011;55625;47.072;22.192;2023-02-04T08:15:53;3.03;;;1.40;;
68633;SDS011;55625;47.072;22.192;2023-02-04T08:18:19;1.65;;;0.35;;
68633;SDS011;55625;47.072;22.192;2023-02-04T08:20:45;1.40;;;0.65;;
68633;SDS011;55625;47.072;22.192;2023-02-04T08:23:10;1.00;;;0.50;;
68633;SDS011;55625;47.072;22.192;2023-02-04T08:25:36;1.13;;;0.65;;
68633;SDS011;55625;47.072;22.192;2023-02-04T08:28:02;1.02;;;0.50;;
68633;SDS011;55625;47.072;22.192;2023-02-04T08:30:28;2.25;;;1.33;;
68633;SDS011;55625;47.072;22.192;2023-02-04T08:32:54;1.00;;;0.40;;
68633;SDS011;55625;47.072;22.192;2023-02-04T08:35:20;1.52;;;0.70;;
68633;SDS011;55625;47.072;22.192;2023-02-04T08:37:46;1.90;;;1.10;;
68633;SDS011;55625;47.072;22.192;2023-02-04T08:40:12;3.00;;;0.70;;
68633;SDS011;55625;47.072;22.192;2023-02-04T08:42:37;1.63;;;0.95;;
68633;SDS011;55625;47.072;22.192;2023-02-04T08:45:03;2.00;;;1.70;;
68633;SDS011;55625;47.072;22.192;2023-02-04T08:47:29;1.77;;;1.25;;
68633;SDS011;55625;47.072;22.192;2023-02-04T08:49:55;1.60;;;1.02;;
68633;SDS011;55625;47.072;22.192;2023-02-04T08:52:21;2.67;;;1.03;;
68633;SDS011;55625;47.072;22.192;2023-02-04T08:54:47;1.48;;;0.57;;
68633;SDS011;55625;47.072;22.192;2023-02-04T08:57:13;1.38;;;0.80;;
68633;SDS011;55625;47.072;22.192;2023-02-04T08:59:39;2.55;;;1.25;;
68633;SDS011;55625;47.072;22.192;2023-02-04T09:02:05;2.87;;;1.03;;
68633;SDS011;55625;47.072;22.192;2023-02-04T09:04:31;1.70;;;1.08;;
68633;SDS011;55625;47.072;22.192;2023-02-04T09:06:57;4.32;;;2.05;;
68633;SDS011;55625;47.072;22.192;2023-02-04T09:09:24;3.57;;;2.20;;
68633;SDS011;55625;47.072;22.192;2023-02-04T09:11:49;2.30;;;1.13;;
68633;SDS011;55625;47.072;22.192;2023-02-04T09:14:15;3.80;;;1.98;;
68633;SDS011;55625;47.072;22.192;2023-02-04T09:16:41;8.57;;;3.90;;
68633;SDS011;55625;47.072;22.192;2023-02-04T09:19:07;4.65;;;2.55;;
68633;SDS011;55625;47.072;22.192;2023-02-04T09:21:36;5.35;;;3.78;;
68633;SDS011;55625;47.072;22.192;2023-02-04T09:24:03;5.43;;;3.47;;
68633;SDS011;55625;47.072;22.192;2023-02-04T09:26:29;9.00;;;4.53;;
68633;SDS011;55625;47.072;22.192;2023-02-04T09:28:55;6.43;;;3.00;;
68633;SDS011;55625;47.072;22.192;2023-02-04T09:31:20;4.03;;;3.47;;
68633;SDS011;55625;47.072;22.192;2023-02-04T09:33:46;5.00;;;2.90;;
68633;SDS011;55625;47.072;22.192;2023-02-04T09:36:13;1.63;;;0.83;;
68633;SDS011;55625;47.072;22.192;2023-02-04T09:38:39;2.70;;;2.20;;
68633;SDS011;55625;47.072;22.192;2023-02-04T09:41:09;4.47;;;2.42;;
68633;SDS011;55625;47.072;22.192;2023-02-04T09:43:40;11.53;;;6.23;;
68633;SDS011;55625;47.072;22.192;2023-02-04T09:46:21;5.68;;;3.63;;
68633;SDS011;55625;47.072;22.192;2023-02-04T09:48:49;13.50;;;8.68;;
68633;SDS011;55625;47.072;22.192;2023-02-04T09:51:17;11.85;;;7.38;;
68633;SDS011;55625;47.072;22.192;2023-02-04T09:53:47;4.35;;;3.47;;
68633;SDS011;55625;47.072;22.192;2023-02-04T09:56:14;3.10;;;1.70;;
68633;SDS011;55625;47.072;22.192;2023-02-04T09:58:41;8.32;;;4.15;;
68633;SDS011;55625;47.072;22.192;2023-02-04T10:01:12;7.68;;;2.50;;
68633;SDS011;55625;47.072;22.192;2023-02-04T10:03:44;8.05;;;4.25;;
68633;SDS011;55625;47.072;22.192;2023-02-04T10:06:15;11.65;;;6.22;;
68633;SDS011;55625;47.072;22.192;2023-02-04T10:08:46;10.93;;;7.33;;
68633;SDS011;55625;47.072;22.192;2023-02-04T10:11:14;10.65;;;6.03;;
68633;SDS011;55625;47.072;22.192;2023-02-04T10:13:45;4.45;;;3.33;;
68633;SDS011;55625;47.072;22.192;2023-02-04T10:16:15;4.57;;;2.78;;
68633;SDS011;55625;47.072;22.192;2023-02-04T10:18:53;5.22;;;3.60;;
68633;SDS011;55625;47.072;22.192;2023-02-04T10:21:32;8.27;;;7.07;;
68633;SDS011;55625;47.072;22.192;2023-02-04T10:24:04;6.93;;;4.00;;
68633;SDS011;55625;47.072;22.192;2023-02-04T10:26:40;4.75;;;3.53;;
68633;SDS011;55625;47.072;22.192;2023-02-04T10:29:07;4.50;;;2.15;;
68633;SDS011;55625;47.072;22.192;2023-02-04T10:31:43;4.43;;;3.42;;
68633;SDS011;55625;47.072;22.192;2023-02-04T10:36:54;11.95;;;3.83;;
68633;SDS011;55625;47.072;22.192;2023-02-04T10:39:28;4.00;;;2.95;;
68633;SDS011;55625;47.072;22.192;2023-02-04T10:41:58;7.95;;;2.88;;
68633;SDS011;55625;47.072;22.192;2023-02-04T10:44:29;2.58;;;1.50;;
68633;SDS011;55625;47.072;22.192;2023-02-04T10:47:04;7.00;;;3.53;;
68633;SDS011;55625;47.072;22.192;2023-02-04T10:49:39;3.28;;;1.25;;
68633;SDS011;55625;47.072;22.192;2023-02-04T10:52:12;2.45;;;1.38;;
68633;SDS011;55625;47.072;22.192;2023-02-04T10:54:42;8.85;;;2.67;;
68633;SDS011;55625;47.072;22.192;2023-02-04T10:59:50;7.13;;;2.40;;
68633;SDS011;55625;47.072;22.192;2023-02-04T11:05:11;5.20;;;3.88;;
68633;SDS011;55625;47.072;22.192;2023-02-04T11:07:41;2.80;;;2.38;;
68633;SDS011;55625;47.072;22.192;2023-02-04T11:10:12;1.88;;;1.05;;
68633;SDS011;55625;47.072;22.192;2023-02-04T11:20:45;2.25;;;0.75;;
68633;SDS011;55625;47.072;22.192;2023-02-04T11:23:28;4.80;;;3.00;;
68633;SDS011;55625;47.072;22.192;2023-02-04T11:26:16;5.00;;;2.30;;
68633;SDS011;55625;47.072;22.192;2023-02-04T11:31:26;3.13;;;1.45;;
68633;SDS011;55625;47.072;22.192;2023-02-04T11:34:09;4.10;;;2.45;;
68633;SDS011;55625;47.072;22.192;2023-02-04T11:39:37;3.70;;;2.57;;
68633;SDS011;55625;47.072;22.192;2023-02-04T11:42:16;2.88;;;1.70;;
68633;SDS011;55625;47.072;22.192;2023-02-04T11:44:50;2.97;;;1.60;;
68633;SDS011;55625;47.072;22.192;2023-02-04T11:47:24;1.95;;;1.10;;
68633;SDS011;55625;47.072;22.192;2023-02-04T11:49:58;6.20;;;1.98;;
68633;SDS011;55625;47.072;22.192;2023-02-04T11:52:29;4.60;;;1.40;;
68633;SDS011;55625;47.072;22.192;2023-02-04T11:54:58;2.92;;;1.95;;
68633;SDS011;55625;47.072;22.192;2023-02-04T11:57:25;2.97;;;1.58;;
68633;SDS011;55625;47.072;22.192;2023-02-04T11:59:52;1.30;;;0.52;;
68633;SDS011;55625;47.072;22.192;2023-02-04T12:02:20;1.58;;;0.85;;
68633;SDS011;55625;47.072;22.192;2023-02-04T12:04:50;2.23;;;1.97;;
68633;SDS011;55625;47.072;22.192;2023-02-04T12:07:41;2.08;;;1.30;;
68633;SDS011;55625;47.072;22.192;2023-02-04T12:12:49;2.35;;;1.98;;
68633;SDS011;55625;47.072;22.192;2023-02-04T12:15:24;2.67;;;1.88;;
68633;SDS011;55625;47.072;22.192;2023-02-04T12:18:03;2.17;;;1.83;;
68633;SDS011;55625;47.072;22.192;2023-02-04T12:20:36;1.83;;;1.10;;
68633;SDS011;55625;47.072;22.192;2023-02-04T12:23:02;1.60;;;0.80;;
68633;SDS011;55625;47.072;22.192;2023-02-04T12:25:29;1.55;;;0.60;;
68633;SDS011;55625;47.072;22.192;2023-02-04T12:27:55;1.98;;;1.33;;
68633;SDS011;55625;47.072;22.192;2023-02-04T12:30:22;1.93;;;1.00;;
68633;SDS011;55625;47.072;22.192;2023-02-04T12:32:50;6.53;;;4.65;;
68633;SDS011;55625;47.072;22.192;2023-02-04T12:35:16;4.50;;;2.53;;
68633;SDS011;55625;47.072;22.192;2023-02-04T12:37:43;1.92;;;1.30;;
68633;SDS011;55625;47.072;22.192;2023-02-04T12:40:13;2.10;;;1.85;;
68633;SDS011;55625;47.072;22.192;2023-02-04T12:42:44;3.10;;;0.87;;
68633;SDS011;55625;47.072;22.192;2023-02-04T12:45:10;1.48;;;0.55;;
68633;SDS011;55625;47.072;22.192;2023-02-04T12:47:39;5.75;;;1.83;;
68633;SDS011;55625;47.072;22.192;2023-02-04T12:50:06;1.30;;;0.75;;
68633;SDS011;55625;47.072;22.192;2023-02-04T12:52:34;1.55;;;1.25;;
68633;SDS011;55625;47.072;22.192;2023-02-04T12:55:01;3.10;;;2.20;;
68633;SDS011;55625;47.072;22.192;2023-02-04T12:57:29;0.90;;;0.20;;
68633;SDS011;55625;47.072;22.192;2023-02-04T12:59:56;1.20;;;0.52;;
68633;SDS011;55625;47.072;22.192;2023-02-04T13:02:24;1.65;;;0.85;;
68633;SDS011;55625;47.072;22.192;2023-02-04T13:04:50;3.42;;;2.05;;
68633;SDS011;55625;47.072;22.192;2023-02-04T13:07:16;2.30;;;1.30;;
68633;SDS011;55625;47.072;22.192;2023-02-04T13:09:42;1.33;;;0.52;;
68633;SDS011;55625;47.072;22.192;2023-02-04T13:12:12;1.42;;;0.85;;
68633;SDS011;55625;47.072;22.192;2023-02-04T13:14:39;2.38;;;1.73;;
68633;SDS011;55625;47.072;22.192;2023-02-04T13:17:09;1.95;;;1.63;;
68633;SDS011;55625;47.072;22.192;2023-02-04T13:19:35;2.30;;;0.70;;
68633;SDS011;55625;47.072;22.192;2023-02-04T13:22:01;1.30;;;0.60;;
68633;SDS011;55625;47.072;22.192;2023-02-04T13:24:27;1.00;;;0.50;;
68633;SDS011;55625;47.072;22.192;2023-02-04T13:26:53;3.05;;;1.52;;
68633;SDS011;55625;47.072;22.192;2023-02-04T13:29:19;1.53;;;0.97;;
68633;SDS011;55625;47.072;22.192;2023-02-04T13:31:46;1.40;;;0.93;;
68633;SDS011;55625;47.072;22.192;2023-02-04T13:34:12;1.05;;;0.52;;
68633;SDS011;55625;47.072;22.192;2023-02-04T13:36:38;1.23;;;0.63;;
68633;SDS011;55625;47.072;22.192;2023-02-04T13:39:04;1.70;;;0.57;;
68633;SDS011;55625;47.072;22.192;2023-02-04T13:41:30;1.73;;;1.17;;
68633;SDS011;55625;47.072;22.192;2023-02-04T13:43:56;1.70;;;0.82;;
68633;SDS011;55625;47.072;22.192;2023-02-04T13:46:22;2.45;;;1.15;;
68633;SDS011;55625;47.072;22.192;2023-02-04T13:48:48;1.85;;;1.13;;
68633;SDS011;55625;47.072;22.192;2023-02-04T13:51:15;1.97;;;1.00;;
68633;SDS011;55625;47.072;22.192;2023-02-04T13:53:41;2.58;;;1.15;;
68633;SDS011;55625;47.072;22.192;2023-02-04T13:56:07;3.35;;;1.65;;
68633;SDS011;55625;47.072;22.192;2023-02-04T13:58:33;1.45;;;0.77;;
68633;SDS011;55625;47.072;22.192;2023-02-04T14:00:59;4.37;;;1.57;;
68633;SDS011;55625;47.072;22.192;2023-02-04T14:03:25;1.55;;;0.65;;
68633;SDS011;55625;47.072;22.192;2023-02-04T14:05:53;0.90;;;0.40;;
68633;SDS011;55625;47.072;22.192;2023-02-04T14:08:20;5.03;;;1.17;;
68633;SDS011;55625;47.072;22.192;2023-02-04T14:10:47;0.90;;;0.30;;
68633;SDS011;55625;47.072;22.192;2023-02-04T14:13:13;5.40;;;2.00;;
68633;SDS011;55625;47.072;22.192;2023-02-04T14:15:39;1.23;;;0.50;;
68633;SDS011;55625;47.072;22.192;2023-02-04T14:18:08;5.57;;;2.38;;
68633;SDS011;55625;47.072;22.192;2023-02-04T14:20:35;2.75;;;1.25;;
68633;SDS011;55625;47.072;22.192;2023-02-04T14:23:02;1.30;;;0.60;;
68633;SDS011;55625;47.072;22.192;2023-02-04T14:25:29;1.67;;;0.97;;
68633;SDS011;55625;47.072;22.192;2023-02-04T14:27:55;2.10;;;1.73;;
68633;SDS011;55625;47.072;22.192;2023-02-04T14:30:23;1.05;;;0.30;;
68633;SDS011;55625;47.072;22.192;2023-02-04T14:32:51;9.35;;;4.53;;
68633;SDS011;55625;47.072;22.192;2023-02-04T14:35:18;3.13;;;2.83;;
68633;SDS011;55625;47.072;22.192;2023-02-04T14:37:44;2.17;;;1.73;;
68633;SDS011;55625;47.072;22.192;2023-02-04T14:40:11;12.52;;;2.45;;
68633;SDS011;55625;47.072;22.192;2023-02-04T14:42:39;4.28;;;1.67;;
68633;SDS011;55625;47.072;22.192;2023-02-04T14:45:05;4.97;;;1.92;;
68633;SDS011;55625;47.072;22.192;2023-02-04T14:47:34;6.10;;;3.97;;
68633;SDS011;55625;47.072;22.192;2023-02-04T14:50:01;13.23;;;5.82;;
68633;SDS011;55625;47.072;22.192;2023-02-04T14:52:28;3.58;;;1.67;;
68633;SDS011;55625;47.072;22.192;2023-02-04T14:54:54;1.38;;;0.40;;
68633;SDS011;55625;47.072;22.192;2023-02-04T14:57:20;2.27;;;1.27;;
68633;SDS011;55625;47.072;22.192;2023-02-04T14:59:46;9.75;;;3.13;;
68633;SDS011;55625;47.072;22.192;2023-02-04T15:02:12;8.57;;;3.35;;